الصفحة الرئيسية
METAR-TAF:

METAR-TAF

مطار :

Apartadó, كولومبيا

دائرة عرض: 07-49N, خط طول: 076-42W, ارتفاع: 20 متر

مراقبة الطقس الحالي

تاريخ ووقت الإصدار 30 دقيقة قبل الساعة 19:00UTC
ريح 14 عقدة من الشمال الغربي تتزايد حتى 24 عقدة, الاتجاه يتراوح بين الغرب/الشمال الغربي و الشمال
درجة الحرارة 30°درجة مئوية
الرطوبة 75%
ضغط 1012 hPa
الرؤية 10 كم أو أكثر
غيوم متفرقة على ارتفاع 2000 قدم
غيوم مفككة على ارتفاع 8000 قدم

METAR: SKLC 211900Z 32014G24KT 290V350 9999 SCT020 BKN080 30/25 Q1012

زمن: 14:30 (19:30 UTC)


TAF: مفقودة

أرصاد الطقس والتوقعات من أكثر من 4000 مطار (تقارير الطقس للمطار METAR والتنبؤ بالطقس بالمطارTAF).

المحطات المتاحة هي النقط الصفراء والحمراء على الخريطة.

حرك المؤشر فوق النقطة لمعرفة اسم المحطة.

ثم انقر لمعرفة أرصاد وتوقعات الطقس.

لتغيير الخارطة: اضغط على الأزرار الخضراء مع رمز الصليب الأسود للتكبير. على الزر الأخضر مع شرطة للتصغير، أو على الأسهم الخضراء للخرائط المجاورة.


METAR-TAF: